createdAt,value
2024-04-18T00:03:54.745Z,35.80
2024-04-18T00:08:56.350Z,35.90
2024-04-18T00:13:57.883Z,35.90
2024-04-18T00:18:59.502Z,35.90
2024-04-18T00:24:01.187Z,36.00
2024-04-18T00:29:02.727Z,36.00
2024-04-18T00:34:04.263Z,36.00
2024-04-18T00:39:05.817Z,36.00
2024-04-18T00:44:07.357Z,36.00
2024-04-18T00:49:09.027Z,36.10
2024-04-18T00:54:10.655Z,36.10
2024-04-18T00:59:12.247Z,36.10
2024-04-18T01:04:13.928Z,36.20
2024-04-18T01:09:15.629Z,36.20
2024-04-18T01:14:17.179Z,36.20
2024-04-18T01:19:18.731Z,36.20
2024-04-18T01:24:20.366Z,36.20
2024-04-18T01:29:21.985Z,36.20
2024-04-18T01:34:23.556Z,36.20
2024-04-18T01:39:25.204Z,36.20
2024-04-18T01:44:26.750Z,36.20
2024-04-18T01:49:28.284Z,36.30
2024-04-18T01:54:29.857Z,36.30
2024-04-18T01:59:31.389Z,36.30
2024-04-18T02:04:33.018Z,36.40
2024-04-18T02:09:34.802Z,36.40
2024-04-18T02:14:36.406Z,36.30
2024-04-18T02:19:37.938Z,36.40
2024-04-18T02:24:39.481Z,36.30
2024-04-18T02:29:41.012Z,36.30
2024-04-18T02:34:42.532Z,36.30
2024-04-18T02:39:44.080Z,36.40
2024-04-18T02:44:45.691Z,36.30
2024-04-18T02:49:47.253Z,36.30
2024-04-18T02:54:48.912Z,36.30
2024-04-18T02:59:50.535Z,36.40
2024-04-18T03:04:52.071Z,36.40
2024-04-18T03:09:53.638Z,36.40
2024-04-18T03:14:55.207Z,36.40
2024-04-18T03:19:56.747Z,36.40
2024-04-18T03:24:58.425Z,36.40
2024-04-18T03:30:00.052Z,36.40
2024-04-18T03:35:01.607Z,36.40
2024-04-18T03:40:03.149Z,36.40
2024-04-18T03:45:04.706Z,36.40
2024-04-18T03:50:06.250Z,36.40
2024-04-18T03:55:07.894Z,36.40
2024-04-18T04:00:09.503Z,36.40
2024-04-18T04:05:11.056Z,36.40
2024-04-18T04:10:12.598Z,36.40
2024-04-18T04:15:14.208Z,36.40
2024-04-18T04:20:15.866Z,36.40
2024-04-18T04:25:17.713Z,36.40
2024-04-18T04:30:19.263Z,36.40
2024-04-18T04:35:20.847Z,36.40
2024-04-18T04:40:22.616Z,36.40
2024-04-18T04:45:24.201Z,36.40
2024-04-18T04:50:25.753Z,36.50
2024-04-18T04:55:27.296Z,36.50
2024-04-18T05:00:28.855Z,36.40
2024-04-18T05:05:30.423Z,36.40
2024-04-18T05:10:32.050Z,36.50
2024-04-18T05:15:33.637Z,36.40
2024-04-18T05:20:35.260Z,36.40
2024-04-18T05:25:36.951Z,36.40
2024-04-18T05:30:38.594Z,36.40
2024-04-18T05:35:40.180Z,36.40
2024-04-18T05:40:41.761Z,36.40
2024-04-18T05:45:43.331Z,36.40
2024-04-18T05:50:44.892Z,36.40
2024-04-18T05:55:46.452Z,36.40
2024-04-18T06:00:48.064Z,36.40
2024-04-18T06:05:49.639Z,36.40
2024-04-18T06:10:51.175Z,36.40
2024-04-18T06:15:52.813Z,36.40
2024-04-18T06:20:54.462Z,36.40
2024-04-18T06:25:55.993Z,36.40
2024-04-18T06:30:57.625Z,36.40
2024-04-18T06:35:59.186Z,36.40
2024-04-18T06:41:00.777Z,36.50
2024-04-18T06:46:02.386Z,37.10
2024-04-18T06:51:03.969Z,37.30
2024-04-18T06:56:05.551Z,37.50
2024-04-18T07:01:07.190Z,37.30
2024-04-18T07:06:08.843Z,37.00
2024-04-18T07:11:10.403Z,36.90
2024-04-18T07:16:11.938Z,36.90
2024-04-18T07:21:13.525Z,36.80
2024-04-18T07:26:15.159Z,36.70
2024-04-18T07:31:16.754Z,36.60
2024-04-18T07:36:18.284Z,36.60
2024-04-18T07:41:19.814Z,36.60
2024-04-18T07:46:21.349Z,36.60
2024-04-18T07:51:22.931Z,36.70
2024-04-18T07:56:25.433Z,36.70
2024-04-18T08:01:28.705Z,36.70
2024-04-18T08:06:32.996Z,36.70
2024-04-18T08:16:40.834Z,36.70
2024-04-18T08:21:42.417Z,36.80
2024-04-18T08:26:43.985Z,36.70
2024-04-18T08:31:45.563Z,36.80
2024-04-18T08:36:47.123Z,36.80
2024-04-18T08:41:48.696Z,36.80
2024-04-18T08:46:50.278Z,36.70
2024-04-18T08:51:51.857Z,36.80
2024-04-18T08:56:53.403Z,36.80
2024-04-18T09:01:54.943Z,36.70
2024-04-18T09:06:56.500Z,36.70
2024-04-18T09:11:58.068Z,36.60
2024-04-18T09:16:59.621Z,36.60
2024-04-18T09:22:01.167Z,36.60
2024-04-18T09:27:02.761Z,36.60
2024-04-18T09:32:04.374Z,36.50
2024-04-18T09:37:05.902Z,36.60
2024-04-18T09:42:07.501Z,36.50
2024-04-18T09:47:09.093Z,36.60
2024-04-18T09:52:10.604Z,36.60
2024-04-18T09:57:12.290Z,36.60
2024-04-18T10:02:13.933Z,36.60
2024-04-18T10:07:15.494Z,36.60
2024-04-18T10:12:17.056Z,36.50
2024-04-18T10:17:18.637Z,36.50
2024-04-18T10:22:29.481Z,36.50
2024-04-18T10:27:38.430Z,36.50
2024-04-18T10:32:40.059Z,36.50
2024-04-18T10:37:41.664Z,36.50
2024-04-18T10:42:43.248Z,36.50
2024-04-18T10:47:44.949Z,36.50
2024-04-18T10:52:46.515Z,36.40
2024-04-18T10:57:48.123Z,36.50
2024-04-18T11:02:49.697Z,36.40
2024-04-18T11:07:51.235Z,36.40
2024-04-18T11:12:52.765Z,36.20
2024-04-18T11:17:54.466Z,36.30
2024-04-18T11:23:01.528Z,36.30
2024-04-18T11:28:10.602Z,36.40
2024-04-18T11:33:12.467Z,36.40
2024-04-18T11:38:14.406Z,36.40
2024-04-18T11:43:15.978Z,36.50
2024-04-18T11:48:17.667Z,36.50
2024-04-18T11:53:19.301Z,36.50
2024-04-18T11:58:20.856Z,36.50
2024-04-18T12:03:22.465Z,36.40
2024-04-18T12:08:24.054Z,36.50
2024-04-18T12:13:25.589Z,36.40
2024-04-18T12:18:27.161Z,36.40
2024-04-18T12:23:28.731Z,36.40
2024-04-18T12:28:30.270Z,36.40
2024-04-18T12:33:31.918Z,36.40
2024-04-18T12:38:33.521Z,36.40
2024-04-18T12:43:35.130Z,36.30
2024-04-18T12:48:37.847Z,36.40
2024-04-18T12:53:40.935Z,38.00
2024-04-18T12:58:42.530Z,38.10
2024-04-18T13:03:44.205Z,38.20
2024-04-18T13:08:45.816Z,38.00
2024-04-18T13:13:47.341Z,37.80
2024-04-18T13:18:48.943Z,37.70
2024-04-18T13:23:50.548Z,37.60
2024-04-18T13:28:52.083Z,37.40
2024-04-18T13:33:55.076Z,37.30
2024-04-18T13:38:58.065Z,37.30
2024-04-18T13:43:59.637Z,37.10
2024-04-18T13:49:01.247Z,37.00
2024-04-18T13:54:02.826Z,36.90
2024-04-18T13:59:04.392Z,36.90
2024-04-18T14:04:06.067Z,36.90
2024-04-18T14:09:10.770Z,36.80
2024-04-18T14:14:12.704Z,36.70
2024-04-18T14:19:14.286Z,36.60
2024-04-18T14:24:15.903Z,36.50
2024-04-18T14:29:17.512Z,36.40
2024-04-18T14:34:19.236Z,36.50
2024-04-18T14:39:20.860Z,36.50
2024-04-18T14:44:22.441Z,36.50
2024-04-18T14:49:23.957Z,36.50
2024-04-18T14:54:25.525Z,36.60
2024-04-18T14:59:27.107Z,36.50
2024-04-18T15:04:31.593Z,36.50
2024-04-18T15:09:33.591Z,36.50
2024-04-18T15:14:35.215Z,36.50
2024-04-18T15:19:36.774Z,36.50
2024-04-18T15:24:38.467Z,36.60
2024-04-18T15:29:40.102Z,36.70
2024-04-18T15:34:41.642Z,36.30
2024-04-18T15:39:43.237Z,36.00
2024-04-18T15:44:44.815Z,36.00
2024-04-18T15:49:46.349Z,36.20
2024-04-18T15:54:47.872Z,36.20
2024-04-18T15:59:49.395Z,36.20
2024-04-18T16:04:51.899Z,36.30
2024-04-18T16:09:53.464Z,36.50
2024-04-18T16:14:54.996Z,36.40
2024-04-18T16:19:56.521Z,36.30
2024-04-18T16:24:58.067Z,36.10
2024-04-18T16:29:59.612Z,36.10
2024-04-18T16:35:01.151Z,36.00
2024-04-18T16:40:02.692Z,36.00
2024-04-18T16:45:04.281Z,36.00
2024-04-18T16:50:05.835Z,36.00
2024-04-18T16:55:07.375Z,36.20
2024-04-18T17:00:08.981Z,36.00
2024-04-18T17:05:10.598Z,36.10
2024-04-18T17:10:12.177Z,36.10
2024-04-18T17:15:14.041Z,36.10
2024-04-18T17:20:15.578Z,36.10
2024-04-18T17:25:17.153Z,36.10
2024-04-18T17:30:18.741Z,36.10
2024-04-18T17:35:20.307Z,36.10
2024-04-18T17:40:21.882Z,35.70
2024-04-18T17:45:23.439Z,32.50
2024-04-18T17:50:25.001Z,32.20
2024-04-18T17:55:26.562Z,31.50
2024-04-18T18:00:28.150Z,31.20
2024-04-18T18:05:29.707Z,30.00
2024-04-18T18:10:31.261Z,30.60
2024-04-18T18:15:32.876Z,30.90
2024-04-18T18:20:34.417Z,30.90
2024-04-18T18:25:35.991Z,30.90
2024-04-18T18:30:37.590Z,30.80
2024-04-18T18:35:39.124Z,30.70
2024-04-18T18:40:40.677Z,30.80
2024-04-18T18:45:42.232Z,30.80
2024-04-18T18:50:43.784Z,31.00
2024-04-18T18:55:45.321Z,31.10
2024-04-18T19:00:46.958Z,31.30
2024-04-18T19:05:48.529Z,31.50
2024-04-18T19:10:50.068Z,31.80
2024-04-18T19:15:51.593Z,31.90
2024-04-18T19:20:53.123Z,32.10
2024-04-18T19:25:54.694Z,32.20
2024-04-18T19:30:56.231Z,32.60
2024-04-18T19:35:57.795Z,32.60
2024-04-18T19:40:59.340Z,32.80
2024-04-18T19:46:00.913Z,33.00
2024-04-18T19:51:02.450Z,33.10
2024-04-18T19:56:04.012Z,33.20
2024-04-18T20:01:06.966Z,33.30
2024-04-18T20:06:08.748Z,33.40
2024-04-18T20:11:10.337Z,33.40
2024-04-18T20:16:11.891Z,33.50
2024-04-18T20:21:13.453Z,33.60
2024-04-18T20:26:15.026Z,33.60
2024-04-18T20:31:16.587Z,33.60
2024-04-18T20:36:18.168Z,33.60
2024-04-18T20:41:19.748Z,33.70
2024-04-18T20:46:21.273Z,33.70
2024-04-18T20:51:22.820Z,33.80
2024-04-18T20:56:24.363Z,33.80
2024-04-18T21:01:25.985Z,33.80
2024-04-18T21:06:27.648Z,33.80
2024-04-18T21:11:29.418Z,33.90
2024-04-18T21:16:31.045Z,33.90
2024-04-18T21:21:32.678Z,33.90
2024-04-18T21:26:34.301Z,33.90
2024-04-18T21:31:35.882Z,34.10
2024-04-18T21:36:37.539Z,34.00
2024-04-18T21:41:39.458Z,34.00
2024-04-18T21:46:41.115Z,34.10
2024-04-18T21:51:42.765Z,34.10
2024-04-18T21:56:44.435Z,34.10
2024-04-18T22:01:46.047Z,34.10
2024-04-18T22:06:47.661Z,34.10
2024-04-18T22:11:49.305Z,34.20
2024-04-18T22:16:50.893Z,34.20
2024-04-18T22:21:52.522Z,34.20
2024-04-18T22:26:54.135Z,34.20
2024-04-18T22:31:55.726Z,34.20
2024-04-18T22:36:57.349Z,34.20
2024-04-18T22:41:58.983Z,34.20
2024-04-18T22:47:00.564Z,34.30
2024-04-18T22:52:02.153Z,34.30
2024-04-18T22:57:03.737Z,34.30
2024-04-18T23:02:05.343Z,34.30
2024-04-18T23:07:06.940Z,34.30
2024-04-18T23:12:08.636Z,34.40
2024-04-18T23:17:10.270Z,34.30
2024-04-18T23:22:11.848Z,34.30
2024-04-18T23:27:13.490Z,34.30
2024-04-18T23:32:15.135Z,34.30
2024-04-18T23:37:16.750Z,34.20
2024-04-18T23:42:18.345Z,34.20
2024-04-18T23:47:19.927Z,34.30
2024-04-18T23:52:21.563Z,34.20
2024-04-18T23:57:23.212Z,34.20
